Tiempo atmosférico en la estación meteorológica de Zamora, Zamora (656 m.)



Fecha
DESCASC
Temp. máxima en grados centígrados (hora)
DESCASC
Temp. mínima en grados centígrados (hora)
DESCASC
Temp. media en grados centígrados
DESCASC
Racha de viento máxima en m/sg (hora)
DESCASC
Velocidad máxima media en intervalos de 10 minutos(hora)
DESCASC
Precipitaciones diarias en mm
DESCASC
Precipitaciones de 00:00 a 06:00 en mm
DESCASC
Precipitaciones de 06:00 a 12:00 en mm
DESCASC
Precipitaciones de 12:00 a 18:00 en mm
DESCASC
Precipitaciones de 18:00 a 24:00 en mm
DESCASC
05-04-2020 16.2 (12:40) 10.3 (07:30) 13.3 8.61 (13:00) 3.61 (13:00) 25.8 0 0 4.4 21.4
04-04-2020 20 (17:50) 1.2 (08:10) 10.6 7.5 (19:50) 3.61 (19:20) 0 0 0 0 0
03-04-2020 16.7 (18:40) 1.2 (08:10) 9 5.28 (11:50) 3.06 (11:50) 0 0 0 0 0
02-04-2020 13.9 (18:10) 5.6 (00:00) 9.7 9.44 (16:20) 6.11 (16:20) 0.8 0 0.8 0 0
01-04-2020 15.5 (17:40) 5.5 (00:00) 10.5 8.06 (19:30) 4.44 (21:50) 4 0 0 0 4
31-03-2020 10.5 (18:10) 1.4 (00:00) 5.9 10.28 (08:20) 6.39 (07:20) 6.2 0 0 0.4 5.8
30-03-2020 8.3 (00:00) 2.7 (00:00) 5.5 11.94 (06:30) 7.22 (15:40) 0 0 0 0 0
29-03-2020 19 (17:40) 2 (00:00) 10.5 7.5 (22:00) 4.17 (21:40) 0 0 0 0 0
28-03-2020 16.6 (17:20) -0.8 (-00:0) 7.9 5.28 (14:50) 2.78 (14:50) 0 0 0 0 0
27-03-2020 14.2 (17:10) -0.8 (-00:0) 6.7 10.56 (13:20) 5.83 (13:20) 0 0 0 0 0
26-03-2020 16.9 (17:00) 0.9 (00:00) 8.9 8.89 (21:30) 4.17 (21:30) 0 0 0 0 0
25-03-2020 20 (16:30) 3.5 (00:00) 11.8 8.33 (21:30) 5 (21:30) 0 0 0 0 0
24-03-2020 17.5 (17:20) 3.4 (00:00) 10.5 7.78 (15:00) 4.17 (13:50) 0 0 0 0 0
23-03-2020 17.1 (17:20) 4.5 (00:00) 10.8 8.06 (12:30) 4.17 (14:40) 0 0 0 0 0
22-03-2020 14.7 (16:10) 7.4 (07:50) 11 5 (13:10) 2.5 (13:20) 3 2 0 1 0
21-03-2020 12.4 (14:10) 8 (00:00) 10.2 5.83 (12:30) 3.06 (12:30) 5 0.2 0.2 0.6 4
20-03-2020 14.7 (13:10) 8.3 (00:00) 11.5 7.5 (14:40) 3.33 (14:40) 0 0 0 0 0
19-03-2020 16.9 (15:40) 6 (00:00) 11.4 5.28 (16:00) 3.33 (16:10) 0 0 0 0 0
18-03-2020 17.5 (15:40) 5 (00:00) 11.3 5.83 (15:10) 3.33 (15:00) 0 0 0 0 0
17-03-2020 15.9 (17:10) 5.9 (00:00) 10.9 12.5 (01:40) 7.22 (07:20) 0.8 0.8 0 0 0
16-03-2020 9.4 (15:30) 2 (00:00) 5.7 13.33 (11:40) 8.33 (15:40) 5.6 3.4 2 0 0.2
15-03-2020 19.4 (13:50) 1 (00:00) 10.2 12.22 (14:50) 5 (22:20) 0.4 0 0 0 0.4
14-03-2020 19.2 (17:10) 1.1 (00:00) 10.2 4.17 (13:10) 1.94 (00:50) 0 0 0 0 0
13-03-2020 17.1 (16:40) 6.3 (08:10) 11.7 8.61 (17:20) 5 (10:50) 0 0 0 0 0
12-03-2020 21.4 (15:50) 8.6 (00:00) 15 7.22 (22:40) 4.17 (22:30) 0 0 0 0 0
11-03-2020 25.1 (16:30) 4.7 (00:00) 14.9 5 (17:30) 2.22 (17:00) 0 0 0 0 0
10-03-2020 22.1 (16:00) 5.2 (00:00) 13.7 7.22 (16:30) 3.06 (16:20) 0 0 0 0 0
09-03-2020 16.8 (16:40) 4.1 (00:00) 10.4 5.83 (00:40) 2.5 (00:40) 0 0 0 0 0

Gráficas

Temp. máximas Temp. mínimas Temp. medias Precipitaciones Rachas de viento máximas Velocidades máximas media en intervalos de 10 minutos

Datos horarios

Fecha y hora oficial Temperatura (ºC) Velocidad del viento (km/h) Dirección del viento Racha (km/h) Dirección de racha Precipitación (mm) Presión (hPa) Tendencia (hPa) Humedad (%)
2020-04-07 23:00:00 13.4 5 Este 11 Este 0 946.4 1.7 91
2020-04-07 22:00:00 14.3 5 Sudeste 12 Sudeste 0 945.7 1.4 89
2020-04-07 21:00:00 15.5 2 Nordeste 8 Norte 0 944.9 0.7 84
2020-04-07 20:00:00 16.4 3 Oeste 20 Noroeste 2.2 944.7 0.3 81
2020-04-07 19:00:00 18.4 0 Calma 11 Este 0 944.3 -0.3 70
2020-04-07 18:00:00 18.7 6 Este 14 Nordeste 0 944.2 -0.9 68
2020-04-07 17:00:00 18.6 6 Nordeste 23 Oeste 1.6 944.4 -1.1 70
2020-04-07 16:00:00 20.2 4 Este 12 Nordeste 0 944.6 -1.1 62
2020-04-07 15:00:00 18.8 4 Norte 11 Norte 0 945.1 -0.8 67
2020-04-07 14:00:00 17.3 4 Este 12 Sur 0 945.5 -0.4 71
2020-04-07 13:00:00 17.5 8 Sudeste 19 Sudeste 0 945.7 0 67
2020-04-07 12:00:00 16.7 9 Sudeste 14 Este 0 945.9 0.4 75
2020-04-07 11:00:00 14.4 6 Este 12 Sudeste 0 945.9 0.9 86
2020-04-07 10:00:00 12.3 5 Sudeste 9 Sudeste 0.2 945.7 1.1 94
2020-04-07 09:00:00 10.3 4 Este 10 Este 0 945.5 0.7 99
2020-04-07 08:00:00 9.8 4 Este 10 Sudeste 0 945 0.1 99
2020-04-07 07:00:00 9.8 7 Este 12 Sudeste 0 944.6 -0.7 100
2020-04-07 06:00:00 9.8 3 Nordeste 5 Este 0 944.8 -0.6 99
2020-04-07 05:00:00 10.3 0 Calma 8 Este 0 944.9 -0.5 97
2020-04-07 04:00:00 10.6 5 Sudeste 12 Sudeste 0 945.3 0 99
2020-04-07 03:00:00 10.8 5 Sudeste 10 Este 0 945.4 -0.2 98
2020-04-07 02:00:00 11 5 Este 9 Este 0.6 945.4 -0.1 98
2020-04-07 01:00:00 10.9 5 Sudeste 12 Este 0.6 945.3 0.1 98
2020-04-07 00:00:00 11 6 Sudeste 13 Sudeste 0.2 945.6 1.2 97
2020-04-06 23:00:00 11.3 5 Este 11 Sudeste 0.2 945.5 1.2 95
2020-04-06 22:00:00 11.6 4 Este 7 Este 0.4 945.2 1.2 94
2020-04-06 21:00:00 12.1 3 Este 6 Este 0.6 944.4 0.3 92
2020-04-06 20:00:00 12.7 3 Norte 5 Noroeste 0.2 944.3 0.2 89
2020-04-06 19:00:00 13 3 Noroeste 10 Sudoeste 0.6 944 -0.4 84
2020-04-06 18:00:00 13.5 5 Sudoeste 15 Oeste 0.2 944.1 -0.1 79
2020-04-06 17:00:00 13.9 4 Oeste 14 Sudoeste 0.4 944.1 0.3 80
2020-04-06 16:00:00 14.3 6 Sudoeste 19 Sudoeste 0.2 944.4 0.8 79
2020-04-06 15:00:00 14.6 10 Sudoeste 24 Sudoeste 0 944.2 0.8 75
2020-04-06 14:00:00 15.4 7 Sudoeste 18 Sudoeste 0 943.8 0.6 69
2020-04-06 13:00:00 14.6 4 Oeste 15 Sur 0 943.6 1.2 75
2020-04-06 12:00:00 13.4 9 Sudoeste 17 Oeste 0 943.4 1.8 78
2020-04-06 11:00:00 12.2 8 Sudoeste 17 Sudoeste 0 943.2 2.8 86
2020-04-06 10:00:00 11.6 6 Sudoeste 16 Oeste 0 942.4 2.7 90
2020-04-06 09:00:00 11.5 6 Sudoeste 18 Oeste 0 941.6 2.4 91
2020-04-06 08:00:00 11.9 7 Sudoeste 18 Sur 0 940.4 1.9 94
2020-04-06 07:00:00 12.3 6 Sudoeste 21 Sudoeste 0 939.7 1.1 93
2020-04-06 06:00:00 12.5 7 Sudoeste 20 Sudoeste 0.2 939.2 0.8 95
2020-04-06 05:00:00 12.5 4 Sudoeste 10 Oeste 0 938.5 -0.3 97
2020-04-06 04:00:00 12.2 5 Sudoeste 19 Sur 0.2 938.6 -0.3 96
2020-04-06 03:00:00 11.9 6 Sudeste 15 Sudeste 1.4 938.4 -0.6 98
2020-04-06 02:00:00 11.9 5 Sudeste 12 Sudeste 0.6 938.8 -0.3 98
2020-04-06 01:00:00 11.9 5 Sudeste 13 Sudeste 0.2 938.9 -0.1 98
2020-04-06 00:00:00 11.9 5 Sudeste 11 Sudeste 3.8 939 0.4 98
2020-04-05 23:00:00 12 6 Sudeste 13 Sudeste 3 939.1 0.9 98
2020-04-05 22:00:00 12.3 4 Sudeste 9 Sudeste 3.8 939 1.3 96
2020-04-05 21:00:00 12.5 2 Noroeste 7 Oeste 5 938.6 1.2 94
2020-04-05 20:00:00 12.9 3 Noroeste 9 Sudoeste 4.2 938.2 0.7 93
2020-04-05 19:00:00 13.4 4 Sur 8 Sur 1.6 937.7 -0.3 89
2020-04-05 18:00:00 13.8 2 Sur 9 Sudeste 1.2 937.4 -0.6 86
2020-04-05 17:00:00 14 6 Sur 17 Sudoeste 0.8 937.5 -1 83
2020-04-05 16:00:00 14.5 5 Sur 15 Sur 0.2 938 -0.7 80
2020-04-05 15:00:00 13.3 5 Sur 19 Sur 1.2 938 -0.4 82
2020-04-05 14:00:00 14.2 7 Sur 27 Oeste 1 938.5 0.1 76
2020-04-05 13:00:00 15.2 13 Sudoeste 31 Oeste 0 938.7 0.2 66
2020-04-05 12:00:00 15.7 10 Sudoeste 24 Sudoeste 0 938.4 -0.2 56
2020-04-05 11:00:00 13.7 8 Sur 24 Sur 0 938.4 0.5 65
2020-04-05 10:00:00 11.4 5 Sudeste 11 Sudeste 0 938.5 1.1 77
2020-04-05 09:00:00 10.6 4 Sudeste 8 Sudeste 0 938.6 1.1 77
2020-04-05 08:00:00 10.4 3 Sudeste 10 Sur 0 937.9 0.4 75
2020-04-05 07:00:00 10.6 4 Sur 13 Sur 0 937.4 -0.2 74
2020-04-05 06:00:00 10.9 4 Sur 17 Sudoeste 0 937.5 -0.1 71
2020-04-05 05:00:00 11 4 Sudoeste 10 Sudeste 0 937.5 -0.2 68
2020-04-05 04:00:00 12.1 5 Sur 16 Sudeste 0 937.6 0.1 64
2020-04-05 03:00:00 12.6 4 Sudoeste 20 Sudoeste 0 937.6 0.1 63
2020-04-05 02:00:00 13.1 8 Sudoeste 23 Sudoeste 0 937.7 0.3 60
2020-04-05 01:00:00 13 5 Sudoeste 16 Sur 0 937.5 0.4 60
2020-04-05 00:00:00 13.4 4 Sur 10 Sudoeste 0 937.5 1 58
2020-04-04 23:00:00 13.9 5 Sur 14 Sudoeste 0 937.4 1.3 54
2020-04-04 22:00:00 14.7 6 Sudoeste 21 Sur 0 937.1 1.5 50
2020-04-04 21:00:00 15.8 8 Sudoeste 23 Oeste 0 936.5 1.1 45
2020-04-04 20:00:00 17.2 12 Sudoeste 27 Sudoeste 0 936.1 0.4 38
2020-04-04 19:00:00 18.8 8 Sudoeste 26 Sudoeste 0 935.6 -0.5 36
2020-04-04 18:00:00 19.4 5 Sudoeste 22 Sudoeste 0 935.4 -1.4 35
2020-04-04 17:00:00 19.4 7 Sur 17 Sur 0 935.7 -1.8 34
2020-04-04 16:00:00 19.3 9 Sudoeste 21 Sudeste 0 936.1 -2.3 33
2020-04-04 15:00:00 18 10 Sur 22 Sur 0 936.8 -2.2 39
2020-04-04 14:00:00 17.2 5 Sudeste 13 Sudeste 0 937.5 -1.6 50
2020-04-04 13:00:00 13.6 5 Este 12 Nordeste 0 938.4 -0.7 65
2020-04-04 12:00:00 10.7 5 Este 13 Nordeste 0 939 0 72
2020-04-04 11:00:00 7.2 7 Nordeste 13 Este 0 939.1 0.3 76
2020-04-04 10:00:00 4.2 7 Nordeste 14 Norte 0 939.1 0.6 92
2020-04-04 09:00:00 1.7 7 Nordeste 12 Nordeste 0 939 0.5 96
2020-04-04 08:00:00 1.3 5 Nordeste 12 Nordeste 0 938.8 0.1 95
2020-04-04 07:00:00 1.6 6 Norte 10 Norte 0 938.5 -0.6 94
2020-04-04 06:00:00 2.4 4 Norte 9 Nordeste 0 938.5 -0.9 92
2020-04-04 05:00:00 3.1 5 Nordeste 12 Este 0 938.7 -0.9 90
2020-04-04 04:00:00 4.6 3 Nordeste 6 Nordeste 0 939.1 -0.7 89
2020-04-04 03:00:00 5.3 2 Este 6 Este 0 939.4 -0.5 86
2020-04-04 02:00:00 6.2 4 Nordeste 9 Este 0 939.6 -0.2 83
2020-04-04 01:00:00 7.1 2 Nordeste 6 Nordeste 0 939.8 0.3 80
2020-04-04 00:00:00 8.1 4 Nordeste 6 Nordeste 0 939.9 0.9 76
2020-04-03 23:00:00 9.2 2 Nordeste 8 Nordeste 0 939.8 0.9 70
2020-04-03 22:00:00 10.9 3 Nordeste 5 Norte 0 939.5 0.5 62
2020-04-03 21:00:00 12.5 4 Norte 8 Nordeste 0 939 -0.2 57
2020-04-03 20:00:00 13.9 6 Nordeste 12 Este 0 938.9 -0.7 50
2020-04-03 19:00:00 15.8 5 Este 12 Sur 0 939 -1.1 41
2020-04-03 18:00:00 16.4 6 Este 12 Este 0 939.2 -1.8 47
2020-04-03 17:00:00 16.1 4 Nordeste 14 Este 0 939.6 -1.9 51
2020-04-03 16:00:00 15.2 5 Este 13 Este 0 940.1 -2.2 51
2020-04-03 15:00:00 13.6 5 Este 14 Este 0 941 -1.4 51
2020-04-03 14:00:00 13 7 Este 15 Este 0 941.5 -0.9 51
2020-04-03 13:00:00 11.4 7 Este 18 Este 0 942.3 0 57
2020-04-03 12:00:00 9.2 11 Este 19 Este 0 942.4 0.4 68
2020-04-03 11:00:00 7.2 7 Este 14 Este 0 942.4 0.7 76
2020-04-03 10:00:00 4 5 Nordeste 8 Norte 0 942.3 1.1 91
2020-04-03 09:00:00 1.6 4 Este 9 Nordeste 0 942 0.9 94
2020-04-03 08:00:00 1.3 3 Norte 9 Nordeste 0 941.7 0.6 92
2020-04-03 07:00:00 2.2 3 Nordeste 7 Este 0 941.2 0.1 89
2020-04-03 06:00:00 2.7 5 Nordeste 9 Nordeste 0 941.1 -0.2 91
2020-04-03 05:00:00 3.6 7 Este 12 Este 0 941.1 -0.2 86
2020-04-03 04:00:00 4.5 5 Nordeste 9 Este 0 941.1 -0.1 87
2020-04-03 03:00:00 5.6 6 Este 14 Este 0 941.3 0.4 82
2020-04-03 02:00:00 6.3 7 Este 13 Sudeste 0 941.3 1 82
2020-04-03 01:00:00 6.6 4 Nordeste 8 Norte 0 941.2 1.5 88
2020-04-03 00:00:00 7.1 7 Nordeste 11 Este 0 940.9 1.9 88
2020-04-02 23:00:00 8.4 3 Nordeste 4 Nordeste 0 940.3 1.5 86
2020-04-02 22:00:00 9.9 3 Norte 5 Nordeste 0 939.7 1.2 84
2020-04-02 21:00:00 11.1 3 Nordeste 12 Nordeste 0 939 0.8 78
2020-04-02 20:00:00 11.9 10 Nordeste 19 Nordeste 0 938.8 0.7 71
2020-04-02 19:00:00 11.9 14 Nordeste 31 Este 0 938.5 0.6 72
2020-04-02 18:00:00 13.6 13 Nordeste 27 Nordeste 0 938.2 0 58
2020-04-02 17:00:00 12.8 13 Este 34 Este 0 938.1 -0.1 66
2020-04-02 16:00:00 13.2 11 Nordeste 21 Este 0 937.9 -0.4 63
2020-04-02 15:00:00 13 15 Este 28 Nordeste 0 938.2 -0.2 66
2020-04-02 14:00:00 12.9 15 Nordeste 29 Nordeste 0 938.2 0.1 77
2020-04-02 13:00:00 11 12 Nordeste 25 Este 0 938.3 0.9 82
2020-04-02 12:00:00 9.5 9 Nordeste 15 Nordeste 0 938.4 1.8 92
2020-04-02 11:00:00 8.1 7 Nordeste 16 Norte 0.4 938.1 2.1 96
2020-04-02 10:00:00 7.6 7 Nordeste 13 Norte 0.4 937.4 1.8 97
2020-04-02 09:00:00 7.4 7 Nordeste 19 Norte 0 936.6 1.2 97
2020-04-02 08:00:00 7.3 11 Nordeste 25 Norte 0 936 0.3 96
2020-04-02 07:00:00 7.3 9 Norte 15 Norte 0 935.6 -0.3 98
2020-04-02 06:00:00 6.9 5 Norte 10 Norte 0 935.4 -0.7 97
2020-04-02 05:00:00 6.5 6 Norte 8 Nordeste 0 935.7 -0.7 98
2020-04-02 04:00:00 5.8 3 Noroeste 5 Norte 0 935.9 -0.5 97
2020-04-02 03:00:00 5.9 2 Nordeste 5 Nordeste 0 936.1 -0.1 94
2020-04-02 02:00:00 6.4 2 Noroeste 6 Nordeste 0 936.4 0.2 93
2020-04-02 01:00:00 6.9 3 Norte 8 Sur 0 936.4 0.2 92
2020-04-02 00:00:00 7.3 5 Sur 13 Norte 0 936.2 1.1 91
2020-04-01 23:00:00 6.9 10 Norte 21 Nordeste 2.2 936.2 1.5 93
2020-04-01 22:00:00 7.3 15 Nordeste 27 Nordeste 1.6 936.2 2.3 90
2020-04-01 21:00:00 8.9 10 Nordeste 22 Nordeste 0 935.1 1.2 84
2020-04-01 20:00:00 10.5 12 Norte 29 Norte 0.2 934.7 0.7 82
2020-04-01 19:00:00 14.6 5 Noroeste 13 Norte 0 933.9 -0.4 45
2020-04-01 18:00:00 15.2 3 Oeste 15 Norte 0 933.9 -0.8 46
2020-04-01 17:00:00 14.8 7 Sudoeste 23 Oeste 0 934 -1.1 51
2020-04-01 16:00:00 13.7 6 Sur 14 Sur 0 934.3 -1.2 58
2020-04-01 15:00:00 12.8 5 Este 12 Sudeste 0 934.7 -1.2 65
2020-04-01 14:00:00 11.1 3 Sudoeste 9 Sudoeste 0 935.1 -0.4 78
2020-04-01 13:00:00 9.1 2 Sudoeste 6 Sur 0 935.5 0.3 85
2020-04-01 12:00:00 7.8 4 Sur 9 Sudoeste 0 935.9 1.2 87
2020-04-01 11:00:00 7.3 3 Oeste 8 Noroeste 0 935.5 1.2 92
2020-04-01 10:00:00 6.3 3 Sur 8 Nordeste 0 935.2 1.6 99
2020-04-01 09:00:00 5.6 4 Este 8 Nordeste 0 934.7 1.4 98
2020-04-01 08:00:00 5.8 4 Sudeste 10 Este 0 934.3 1 96
2020-04-01 07:00:00 6.6 3 Nordeste 8 Noroeste 0 933.6 0.4 95
2020-04-01 06:00:00 7.1 3 Sudeste 6 Sur 0 933.3 0.3 95
2020-04-01 05:00:00 7.2 4 Este 9 Sudeste 0 933.3 0.8 95
2020-04-01 04:00:00 7.4 5 Este 9 Este 0 933.2 1 95
2020-04-01 03:00:00 7.6 3 Sudeste 6 Sudeste 0 933 1.4 94
2020-04-01 02:00:00 7.7 4 Este 12 Sudeste 0 932.5 1.1 95
2020-04-01 01:00:00 7.8 7 Este 13 Este 0 932.2 1.5 95
2020-04-01 00:00:00 7.7 7 Este 13 Nordeste 0 931.6 1.3 96
2020-03-31 23:00:00 7.4 8 Nordeste 21 Nordeste 0.4 931.4 1.3 94
2020-03-31 22:00:00 8 14 Este 27 Este 5.4 930.7 1.1 95
2020-03-31 21:00:00 9.3 8 Nordeste 22 Este 0 930.3 0.9 77
2020-03-31 20:00:00 9.8 9 Este 25 Este 0 930.1 0.6 75
2020-03-31 19:00:00 10.3 12 Este 26 Este 0 929.6 0.1 71
2020-03-31 18:00:00 10.1 15 Este 23 Este 0 929.4 -0.2 76
2020-03-31 17:00:00 9.1 12 Este 22 Este 0.4 929.5 -0.3 80
2020-03-31 16:00:00 9.3 14 Este 24 Este 0 929.5 -0.5 66
2020-03-31 15:00:00 8.7 14 Este 31 Este 0 929.6 -0.5 70
2020-03-31 14:00:00 8.7 14 Este 32 Este 0 929.8 -0.7 63
2020-03-31 13:00:00 7.8 19 Este 31 Nordeste 0 930 -1 62
2020-03-31 12:00:00 6.6 18 Este 33 Este 0 930.1 -1.1 67
2020-03-31 11:00:00 4.3 20 Este 35 Nordeste 0 930.5 -0.8 68
2020-03-31 10:00:00 2.4 13 Nordeste 31 Nordeste 0 931 -0.4 74
2020-03-31 09:00:00 1.6 19 Nordeste 37 Nordeste 0 931.2 -0.8 75
2020-03-31 08:00:00 1.4 21 Nordeste 36 Nordeste 0 931.3 -1 73
2020-03-31 07:00:00 1.5 20 Nordeste 32 Nordeste 0 931.4 -2.2 72
2020-03-31 06:00:00 1.5 15 Nordeste 37 Nordeste 0 932 -1.9 73
2020-03-31 05:00:00 1.7 20 Nordeste 36 Nordeste 0 932.3 -2.6 72
2020-03-31 04:00:00 1.7 19 Este 32 Este 0 933.6 -2.5 70
2020-03-31 03:00:00 1.8 18 Este 32 Este 0 933.9 -2.5 68
2020-03-31 02:00:00 2.2 17 Este 34 Este 0 934.9 -1.8 63
2020-03-31 01:00:00 2.5 18 Este 37 Este 0 936.1 -0.7 62
2020-03-31 00:00:00 2.7 22 Este 36 Este 0 936.4 0 60
2020-03-30 23:00:00 3.3 19 Este 41 Nordeste 0 936.7 0.5 57
2020-03-30 22:00:00 4.1 22 Este 37 Este 0 936.8 0.3 53
2020-03-30 21:00:00 5.1 14 Este 36 Este 0 936.4 -0.9 45
2020-03-30 20:00:00 5.9 18 Este 35 Este 0 936.2 -1.4 43
2020-03-30 19:00:00 6.7 18 Este 37 Este 0 936.5 -1.7 40
2020-03-30 18:00:00 6.9 18 Este 36 Este 0 937.3 -2 41
2020-03-30 17:00:00 7.1 17 Este 36 Nordeste 0 937.6 -2.4 42
2020-03-30 16:00:00 7.3 22 Este 42 Nordeste 0 938.2 -2.3 44
2020-03-30 15:00:00 7.1 22 Este 39 Nordeste 0 939.3 -1.6 44
2020-03-30 14:00:00 6.3 18 Este 38 Este 0 940 -1.3 54
2020-03-30 13:00:00 5.5 21 Este 35 Nordeste 0 940.5 -0.7 55
2020-03-30 12:00:00 4.7 20 Este 32 Este 0 940.9 -0.4 57
2020-03-30 11:00:00 3.8 16 Este 36 Este 0 941.3 0.3 65
2020-03-30 10:00:00 3.4 17 Este 33 Este 0 941.2 0.3 68
2020-03-30 09:00:00 3.4 18 Este 34 Este 0 941.3 0.2 69
2020-03-30 08:00:00 3.8 16 Este 38 Este 0 941 -0.2 72
2020-03-30 07:00:00 4 23 Este 43 Nordeste 0 940.9 -0.4 73
2020-03-30 06:00:00 5.1 19 Este 36 Este 0 941.1 -0.6 68
2020-03-30 05:00:00 5.4 16 Este 37 Este 0 941.2 -0.4 70
2020-03-30 04:00:00 6.1 18 Este 31 Este 0 941.3 -0.7 69
2020-03-30 03:00:00 6.8 19 Este 31 Este 0 941.7 -0.2 69
2020-03-30 02:00:00 7.3 17 Nordeste 28 Nordeste 0 941.6 0.4 72
2020-03-30 01:00:00 7.7 17 Nordeste 26 Este 0 942 1.7 72
2020-03-30 00:00:00 8.3 12 Nordeste 23 Nordeste 0 941.9 2.6 69
2020-03-29 23:00:00 9.7 14 Este 27 Este 0 941.2 1.7 62
2020-03-29 22:00:00 11.7 14 Este 27 Este 0 940.3 0.7 52
2020-03-29 21:00:00 15 2 Sudeste 7 Sudeste 0 939.3 -0.3 37
2020-03-29 20:00:00 16.2 4 Este 9 Este 0 939.5 -0.7 36
2020-03-29 19:00:00 17.6 3 Nordeste 12 Norte 0 939.6 -1.2 34
2020-03-29 18:00:00 18.5 7 Nordeste 14 Norte 0 939.6 -2 33
2020-03-29 17:00:00 18.4 6 Nordeste 15 Nordeste 0 940.2 -2.1 34
2020-03-29 16:00:00 18.1 3 Norte 14 Norte 0 940.8 -1.9 35
2020-03-29 15:00:00 17 6 Este 17 Norte 0 941.6 -1.6 44
2020-03-29 14:00:00 15.1 6 Norte 15 Norte 0 942.3 -1.1 52
2020-03-29 13:00:00 12.9 6 Norte 14 Norte 0 942.7 -0.6 59
2020-03-29 12:00:00 9.8 4 Norte 14 Nordeste 0 943.2 0 68
2020-03-29 11:00:00 7.4 8 Norte 15 Nordeste 0 943.4 0.6 77
2020-03-29 10:00:00 4.3 7 Nordeste 12 Nordeste 0 943.3 0.8 81
2020-03-29 09:00:00 2.3 3 Nordeste 5 Nordeste 0 943.2 0.8 85
2020-03-29 08:00:00 2 0 Calma 4 Nordeste 0 942.8 0.2 84
2020-03-29 07:00:00 2.5 2 Nordeste 5 Nordeste 0 942.5 -0.1 80
2020-03-29 06:00:00 3.5 2 Noroeste 8 Noroeste 0 942.4 -0.4 79
2020-03-29 05:00:00 4.1 3 Noroeste 7 Noroeste 0 942.6 0 78
2020-03-29 03:00:00 4.8 4 Nordeste 6 Nordeste 0 942.8 0.4 74
2020-03-29 01:00:00 6.4 2 Este 5 Este 0 942.6 0.3 67
2020-03-29 00:00:00 7.6 0 Calma 3 Nordeste 0 942.6 0.9 62
2020-03-28 23:00:00 8.5 0 Calma 6 Este 0 942.4 1.2 56
2020-03-28 22:00:00 9.5 3 Este 5 Norte 0 942.3 1.5 54
2020-03-28 21:00:00 11.3 3 Noroeste 5 Oeste 0 941.7 1.2 44
2020-03-28 20:00:00 12.8 2 Noroeste 7 Norte 0 941.2 0.8 42
2020-03-28 19:00:00 14.5 2 Norte 8 Norte 0 940.8 0.2 33
2020-03-28 18:00:00 16 4 Este 10 Sur 0 940.5 -0.3 31
2020-03-28 17:00:00 16.3 5 Sudeste 14 Este 0 940.4 -1 29
2020-03-28 16:00:00 16.3 5 Sudeste 14 Nordeste 0 940.6 -1.2 24
2020-03-28 15:00:00 15.9 9 Este 19 Este 0 940.8 -1.5 36
2020-03-28 14:00:00 14.7 8 Este 16 Sudeste 0 941.4 -1.1 40
2020-03-28 13:00:00 13.3 5 Este 14 Nordeste 0 941.8 -0.6 46
2020-03-28 12:00:00 11.2 6 Nordeste 12 Norte 0 942.3 0.4 53
2020-03-28 11:00:00 8.4 5 Este 14 Nordeste 0 942.5 1.1 65
2020-03-28 10:00:00 5.3 7 Nordeste 15 Nordeste 0 942.4 1.6 76
2020-03-28 09:00:00 1.8 6 Norte 11 Norte 0 941.9 1.6 81
2020-03-28 08:00:00 -0.5 5 Nordeste 8 Norte 0 941.4 1.6 86
2020-03-28 07:00:00 -0.6 5 Nordeste 7 Nordeste 0 940.8 1.1 86
2020-03-28 06:00:00 0 4 Nordeste 7 Norte 0 940.3 0.6 83
2020-03-28 05:00:00 0.8 4 Norte 6 Norte 0 939.8 0.4 81
2020-03-28 04:00:00 1.6 3 Noroeste 8 Nordeste 0 939.7 0.5 80
2020-03-28 03:00:00 2.3 3 Nordeste 11 Norte 0 939.7 1 76
2020-03-28 02:00:00 3 0 Calma 3 Nordeste 0 939.4 1 73
2020-03-28 01:00:00 3.3 3 Nordeste 10 Nordeste 0 939.2 1.3 71
2020-03-28 00:00:00 5.3 2 Nordeste 5 Este 0 938.7 1.6 65
2020-03-27 23:00:00 6.6 2 Nordeste 4 Norte 0 938.4 2.3 56
2020-03-27 22:00:00 8.2 0 Calma 9 Sudeste 0 937.9 2.1 52
2020-03-27 21:00:00 9.3 4 Sur 7 Sur 0 937.1 1.8 44
2020-03-27 20:00:00 10.6 3 Este 7 Sur 0 936.1 1 39
2020-03-27 19:00:00 11.9 4 Sudeste 16 Sur 0 935.8 0.4 35
2020-03-27 18:00:00 13.3 7 Este 17 Sur 0 935.3 -0.4 33
2020-03-27 17:00:00 14.1 4 Sur 20 Sudeste 0 935.1 -0.8 31
2020-03-27 16:00:00 13.9 8 Sudeste 27 Este 0 935.4 -0.9 33
2020-03-27 15:00:00 13.2 13 Este 30 Este 0 935.7 -1.2 31
2020-03-27 14:00:00 11.9 14 Este 38 Nordeste 0 935.9 -1.2 40
2020-03-27 13:00:00 10.6 18 Este 33 Este 0 936.3 -0.6 38
2020-03-27 12:00:00 9.1 17 Nordeste 30 Nordeste 0 936.9 0.4 45
2020-03-27 11:00:00 7.6 15 Este 27 Nordeste 0 937.1 1 51
2020-03-27 10:00:00 4.8 12 Nordeste 23 Nordeste 0 936.9 1 65
2020-03-27 09:00:00 1.5 12 Nordeste 19 Nordeste 0 936.5 0.7 78
2020-03-27 08:00:00 -0.3 5 Nordeste 16 Nordeste 0 936.1 0.6 83
2020-03-27 07:00:00 -0.5 5 Nordeste 11 Norte 0 935.9 0.4 81
2020-03-27 06:00:00 0.6 5 Nordeste 13 Nordeste 0 935.8 0.2 76
2020-03-27 05:00:00 1.5 5 Nordeste 13 Nordeste 0 935.5 -0.1 75
2020-03-27 04:00:00 2.7 8 Este 23 Sudeste 0 935.5 -0.1 69
2020-03-27 03:00:00 3.5 12 Este 21 Este 0 935.6 0.1 66
2020-03-27 02:00:00 3.9 7 Este 18 Este 0 935.6 0.6 70
2020-03-27 01:00:00 4.7 9 Este 17 Este 0 935.6 1.2 72
2020-03-27 00:00:00 5.4 9 Este 23 Este 0 935.5 2 69
2020-03-26 23:00:00 6.5 9 Este 20 Este 0 935 2.2 63
2020-03-26 22:00:00 8.2 12 Este 32 Sudeste 0 934.4 1.7 57
2020-03-26 21:00:00 10.1 7 Este 14 Nordeste 0 933.5 0.7 50
2020-03-26 20:00:00 12.7 5 Este 11 Sudeste 0 932.8 -0.3 37
2020-03-26 19:00:00 14.1 7 Sudeste 13 Sudeste 0 932.7 -0.9 29
2020-03-26 18:00:00 15.9 3 Sudeste 13 Este 0 932.8 -1.5 28
2020-03-26 17:00:00 16.8 4 Este 11 Este 0 933.1 -1.8 27
2020-03-26 16:00:00 16.4 5 Este 20 Este 0 933.6 -1.9 32
2020-03-26 15:00:00 15.4 4 Norte 15 Nordeste 0 934.3 -1.5 33
2020-03-26 14:00:00 14.4 4 Oeste 13 Nordeste 0 934.9 -1.6 41
2020-03-26 13:00:00 13.3 5 Nordeste 14 Este 0 935.5 -1.3 41
2020-03-26 12:00:00 12.4 6 Este 19 Este 0 935.8 -1.1 44
2020-03-26 11:00:00 10.4 7 Sudeste 16 Sur 0 936.5 -0.6 52
2020-03-26 10:00:00 7.3 6 Sudeste 12 Este 0 936.8 -0.1 61
2020-03-26 09:00:00 3.6 3 Nordeste 5 Nordeste 0 936.9 0.4 78
2020-03-26 08:00:00 1.4 4 Nordeste 10 Este 0 937.1 0.6 86
2020-03-26 07:00:00 0.9 5 Este 9 Este 0 936.9 0.2 82
2020-03-26 06:00:00 1.2 0 Calma 10 Este 0 936.5 -0.6 82
2020-03-26 05:00:00 1.9 4 Nordeste 8 Este 0 936.5 -1 74
2020-03-26 04:00:00 3.3 0 Calma 6 Sur 0 936.7 -1 70
2020-03-26 03:00:00 5 0 Calma 6 Oeste 0 937.1 -0.3 59
2020-03-26 02:00:00 5.9 2 Noroeste 6 Noroeste 0 937.5 0.2 54
2020-03-26 01:00:00 6.4 5 Sur 15 Nordeste 0 937.7 0.9 54
2020-03-26 00:00:00 7.8 6 Nordeste 15 Norte 0 937.4 1 46
2020-03-25 23:00:00 9.4 14 Norte 22 Norte 0 937.3 1.6 43
2020-03-25 22:00:00 11.9 15 Norte 30 Norte 0 936.8 0.9 36
2020-03-25 21:00:00 14.6 14 Norte 26 Norte 0 936.4 0.6 37
2020-03-25 20:00:00 15.8 5 Oeste 18 Sudoeste 0 935.7 -0.4 54
2020-03-25 19:00:00 17.2 8 Sudoeste 17 Sur 0 935.9 -0.7 51
2020-03-25 18:00:00 18.5 8 Sur 14 Sudeste 0 935.8 -1.4 46
2020-03-25 17:00:00 18.7 7 Sur 20 Sudeste 0 936.1 -1.6 41
2020-03-25 16:00:00 19.5 6 Este 15 Este 0 936.6 -1.9 43
2020-03-25 15:00:00 19.5 5 Norte 17 Norte 0 937.2 -2.1 47
2020-03-25 14:00:00 18.2 6 Nordeste 19 Norte 0 937.7 -2.1 47
2020-03-25 13:00:00 16.9 6 Noroeste 13 Oeste 0 938.5 -1.4 52
2020-03-25 12:00:00 14.7 5 Sur 10 Sudoeste 0 939.3 -0.6 64
2020-03-25 11:00:00 12.2 4 Este 9 Nordeste 0 939.8 -0.2 71
2020-03-25 10:00:00 9.3 3 Este 7 Noroeste 0 939.9 0.2 79
2020-03-25 09:00:00 6.5 4 Norte 5 Norte 0 939.9 0.1 90
2020-03-25 08:00:00 3.6 0 Calma 3 Noroeste 0 940 0.2 93
2020-03-25 07:00:00 4 3 Noroeste 5 Noroeste 0 939.7 -0.1 92
2020-03-25 06:00:00 3.9 0 Calma 5 Nordeste 0 939.8 -0.1 92
2020-03-25 05:00:00 4.2 4 Nordeste 8 Nordeste 0 939.8 -0.3 92
2020-03-25 04:00:00 4.9 3 Este 4 Norte 0 939.8 -0.3 88
2020-03-25 03:00:00 5.4 2 Norte 9 Nordeste 0 939.9 -0.1 88
2020-03-25 02:00:00 6.2 5 Nordeste 9 Nordeste 0 940.1 0.3 84
2020-03-25 01:00:00 7.3 3 Noroeste 5 Norte 0 940.1 0.6 79
2020-03-25 00:00:00 8.6 3 Norte 5 Nordeste 0 940 0.6 75
2020-03-24 23:00:00 9.5 3 Norte 5 Norte 0 939.8 0.7 72
2020-03-24 22:00:00 10.5 3 Este 6 Nordeste 0 939.5 0.8 68
2020-03-24 21:00:00 11.4 3 Norte 9 Este 0 939.4 1 65
2020-03-24 20:00:00 13 6 Este 17 Este 0 939.1 0.6 56
2020-03-24 19:00:00 14.7 11 Este 24 Nordeste 0 938.7 0 53
2020-03-24 18:00:00 16.2 10 Este 21 Este 0 938.4 -0.7 51
2020-03-24 17:00:00 17.1 13 Este 26 Este 0 938.5 -1 46
2020-03-24 16:00:00 16.9 14 Este 25 Nordeste 0 938.7 -1.3 51
2020-03-24 15:00:00 16.2 14 Nordeste 28 Nordeste 0 939.1 -1.3 50
2020-03-24 14:00:00 15.6 15 Nordeste 23 Nordeste 0 939.5 -1.4 54
2020-03-24 13:00:00 15.1 14 Nordeste 23 Este 0 940 -1 60
2020-03-24 12:00:00 15.2 8 Este 17 Nordeste 0 940.4 -0.5 64
2020-03-24 11:00:00 12.3 7 Este 13 Nordeste 0 940.9 0.2 79
2020-03-24 10:00:00 8.8 9 Nordeste 17 Nordeste 0 941 0.6 90
2020-03-24 09:00:00 5.8 8 Nordeste 17 Nordeste 0 940.9 0.7 96
2020-03-24 08:00:00 3.6 5 Norte 9 Nordeste 0 940.7 0.6 98
2020-03-24 07:00:00 3.5 6 Norte 12 Norte 0 940.4 0.3 97
2020-03-24 06:00:00 3.6 5 Norte 12 Nordeste 0 940.2 0 96
2020-03-24 05:00:00 4 5 Norte 8 Norte 0 940.1 0 94
2020-03-24 04:00:00 4.6 4 Norte 6 Norte 0 940.1 0 92
2020-03-24 03:00:00 5.4 4 Nordeste 8 Nordeste 0 940.2 0.2 91
2020-03-24 02:00:00 6 5 Nordeste 8 Nordeste 0 940.1 0.4 88
2020-03-24 01:00:00 6.9 3 Nordeste 8 Nordeste 0 940.1 0.9 86
2020-03-24 00:00:00 7.9 4 Nordeste 12 Este 0 940 1.4 85
2020-03-23 23:00:00 8.9 5 Sudeste 13 Sudeste 0 939.7 1.3 83
2020-03-23 22:00:00 9.3 4 Nordeste 11 Nordeste 0 939.2 1.1 79
2020-03-23 21:00:00 10.5 3 Nordeste 10 Este 0 938.6 0.9 78
2020-03-23 20:00:00 11.7 6 Este 10 Este 0 938.4 1 71
2020-03-23 19:00:00 13.1 6 Sudeste 25 Sudeste 0 938.1 0.3 65
2020-03-23 18:00:00 15.2 10 Este 22 Este 0 937.7 -0.4 52
2020-03-23 17:00:00 16.9 9 Este 27 Nordeste 0 937.4 -1.5 50
2020-03-23 16:00:00 16.5 12 Este 25 Este 0 937.8 -1.6 55
2020-03-23 15:00:00 15.6 14 Este 28 Sudeste 0 938.1 -1.7 51
2020-03-23 14:00:00 15 12 Este 24 Sudeste 0 938.9 -1.2 57
2020-03-23 13:00:00 14.9 14 Este 29 Este 0 939.4 -0.6 61
2020-03-23 12:00:00 13.7 13 Este 23 Nordeste 0 939.8 0.1 72
2020-03-23 11:00:00 10.8 8 Nordeste 18 Norte 0 940.1 0.7 82
2020-03-23 10:00:00 8 9 Nordeste 18 Nordeste 0 940 1.1 90
2020-03-23 09:00:00 5.8 12 Nordeste 19 Norte 0 939.7 1 95
2020-03-23 08:00:00 4.6 7 Nordeste 14 Nordeste 0 939.4 1.3 97
2020-03-23 07:00:00 4.6 5 Nordeste 12 Norte 0 938.9 1.1 96
2020-03-23 06:00:00 5 6 Norte 15 Norte 0 938.7 0.8 95
2020-03-23 05:00:00 5.9 8 Norte 15 Norte 0 938.1 0.2 95
2020-03-23 04:00:00 6.3 9 Norte 15 Nordeste 0 937.8 -0.1 94
2020-03-23 03:00:00 6.9 7 Norte 20 Nordeste 0 937.9 -0.2 92
2020-03-23 02:00:00 7.9 7 Nordeste 15 Nordeste 0 937.9 0 91
2020-03-23 01:00:00 8.6 9 Nordeste 19 Nordeste 0 937.9 0.5 88
2020-03-23 00:00:00 9.2 3 Nordeste 10 Este 0 938.1 1.3 91
2020-03-22 23:00:00 9.6 0 Calma 5 Noroeste 0 937.9 1.9 90
2020-03-22 22:00:00 9.6 2 Norte 5 Sur 0 937.4 1.7 89
2020-03-22 21:00:00 10.8 2 Nordeste 8 Sudeste 0 936.8 1.5 80
2020-03-22 20:00:00 11.9 4 Sur 12 Sudeste 0 936 0.7 77
2020-03-22 19:00:00 13.3 4 Este 11 Sudeste 0 935.7 0.4 70
2020-03-22 18:00:00 13.9 3 Nordeste 7 Norte 0 935.3 -0.3 67
2020-03-22 17:00:00 12.6 4 Norte 14 Nordeste 0.2 935.3 -0.8 77
2020-03-22 16:00:00 14.4 3 Este 11 Norte 0 935.3 -1.2 70
2020-03-22 15:00:00 13.2 0 Calma 12 Este 0.8 935.6 -1.2 75
2020-03-22 14:00:00 14.2 5 Este 18 Este 0 936.1 -0.7 69
2020-03-22 13:00:00 13.1 5 Nordeste 12 Norte 0 936.5 -0.1 74
2020-03-22 12:00:00 11.3 4 Norte 10 Noroeste 0 936.8 0.9 79
2020-03-22 11:00:00 9.7 2 Nordeste 8 Sudeste 0 936.8 1 85
2020-03-22 10:00:00 8.8 3 Sudeste 6 Norte 0 936.6 1.3 93
2020-03-22 09:00:00 8 3 Norte 5 Norte 0 935.9 1 97
2020-03-22 08:00:00 7.4 4 Nordeste 6 Este 0 935.8 1 98
2020-03-22 07:00:00 7.6 4 Nordeste 5 Nordeste 0 935.3 0.5 99
2020-03-22 06:00:00 7.6 3 Nordeste 6 Nordeste 0 934.9 -0.1 98
2020-03-22 05:00:00 7.8 0 Calma 6 Nordeste 0 934.8 -0.4 98
2020-03-22 04:00:00 7.8 4 Norte 8 Norte 0.2 934.8 -0.5 98
2020-03-22 03:00:00 7.7 5 Norte 8 Norte 0.4 935 -0.4 97
2020-03-22 02:00:00 8 4 Nordeste 6 Este 0.8 935.2 -0.1 97
2020-03-22 01:00:00 8.1 2 Noroeste 5 Noroeste 0.6 935.3 0.3 96
2020-03-22 00:00:00 8.2 4 Noroeste 6 Norte 0.4 935.4 0.7 96
2020-03-21 23:00:00 8.2 2 Oeste 7 Noroeste 0.6 935.3 1.1 95
2020-03-21 22:00:00 8.3 3 Noroeste 10 Norte 2.6 935 0.8 94
2020-03-21 21:00:00 8.8 4 Oeste 8 Noroeste 0 934.7 1 92
2020-03-21 20:00:00 9.1 4 Oeste 10 Noroeste 0.2 934.2 0.4 89
2020-03-21 19:00:00 9.6 4 Oeste 11 Oeste 0.2 934.2 0.2 86
2020-03-21 18:00:00 10.1 3 Oeste 13 Sudoeste 0 933.7 -0.4 86
2020-03-21 17:00:00 10.4 6 Oeste 15 Sudoeste 0.6 933.8 -0.7 84
2020-03-21 16:00:00 11 7 Sudoeste 14 Sudoeste 0 934 -1 79
2020-03-21 15:00:00 11.9 7 Oeste 16 Oeste 0 934.1 -1.1 73
2020-03-21 14:00:00 11.8 5 Oeste 17 Sur 0 934.5 -0.7 77
2020-03-21 13:00:00 10.7 7 Sur 21 Sur 0 935 0.1 83
2020-03-21 12:00:00 10.1 8 Sudeste 18 Sudeste 0.2 935.2 0.6 88
2020-03-21 11:00:00 9.3 9 Este 14 Este 0 935.2 0.6 86
2020-03-21 10:00:00 9.4 8 Este 14 Nordeste 0 934.9 0.5 84
2020-03-21 09:00:00 8.8 7 Este 13 Nordeste 0 934.6 0.2 88
2020-03-21 08:00:00 8.2 5 Nordeste 13 Sudeste 0 934.6 0.1 91
2020-03-21 07:00:00 9 5 Sudeste 16 Sur 0 934.4 -0.3 85
2020-03-21 06:00:00 9.2 6 Sudeste 20 Sudeste 0 934.4 -0.7 85
2020-03-21 05:00:00 9 8 Este 16 Este 0 934.5 -1.1 86
2020-03-21 04:00:00 8.6 7 Este 15 Nordeste 0 934.7 -1.2 89
2020-03-21 03:00:00 8.7 6 Este 12 Este 0.2 935.1 -1.3 90
2020-03-21 02:00:00 9 7 Este 15 Este 0 935.6 -1 87
2020-03-21 01:00:00 9.5 8 Este 13 Este 0 935.9 -0.6 84
2020-03-21 00:00:00 9.3 6 Este 10 Nordeste 0 936.4 -0.4 88
2020-03-20 23:00:00 9.3 2 Norte 8 Nordeste 0 936.6 -0.1 90
2020-03-20 22:00:00 9.1 8 Nordeste 13 Nordeste 0 936.5 -0.3 91
2020-03-20 21:00:00 9.9 4 Nordeste 9 Este 0 936.8 0.2 86
2020-03-20 20:00:00 11 5 Este 10 Este 0 936.7 -0.5 82
2020-03-20 19:00:00 11.5 5 Este 12 Este 0 936.8 -0.7 81
2020-03-20 18:00:00 11.7 6 Este 9 Este 0 936.6 -1.1 79
2020-03-20 17:00:00 11.7 3 Oeste 15 Sudoeste 0 937.2 -0.6 78
2020-03-20 16:00:00 12.2 4 Oeste 15 Sudoeste 0 937.5 -0.2 77
2020-03-20 15:00:00 12.1 8 Oeste 27 Sudoeste 0 937.7 -0.4 80
2020-03-20 14:00:00 13.8 6 Oeste 14 Noroeste 0 937.8 -0.3 74
2020-03-20 13:00:00 14.6 3 Sudeste 10 Sudeste 0 937.7 -0.3 68
2020-03-20 12:00:00 14.4 5 Nordeste 10 Sudeste 0 938.1 0.2 70
2020-03-20 11:00:00 12.2 5 Este 10 Este 0 938.1 0.4 81
2020-03-20 10:00:00 10.4 5 Este 10 Este 0 938 0.4 88
2020-03-20 09:00:00 8.9 5 Este 9 Este 0 937.9 0.3 90
2020-03-20 08:00:00 8.4 3 Nordeste 8 Nordeste 0 937.7 0 90
2020-03-20 07:00:00 8.9 4 Este 9 Este 0 937.6 -0.3 89
2020-03-20 06:00:00 9.4 3 Este 8 Este 0 937.6 -0.7 89
2020-03-20 05:00:00 9.4 4 Este 7 Este 0 937.7 -0.7 88
2020-03-20 04:00:00 9.7 2 Sudeste 8 Sudeste 0 937.9 -0.7 86
2020-03-20 03:00:00 10.2 3 Sudeste 6 Este 0 938.3 -0.8 84
2020-03-20 02:00:00 10.6 3 Sur 8 Este 0 938.4 -1.1 81
2020-03-20 01:00:00 10.7 3 Este 5 Nordeste 0 938.6 -1 82
2020-03-20 00:00:00 11.1 4 Sudeste 12 Sudeste 0 939.1 -0.6 78
2020-03-19 23:00:00 11 2 Noroeste 5 Nordeste 0 939.5 0.1 79
2020-03-19 22:00:00 11.2 3 Nordeste 5 Nordeste 0 939.6 0.2 76
2020-03-19 21:00:00 11.9 3 Sudeste 7 Nordeste 0 939.7 0.1 73
2020-03-19 20:00:00 12.8 5 Este 12 Sudeste 0 939.4 -0.7 66
2020-03-19 19:00:00 14.1 7 Este 13 Sudeste 0 939.4 -1.3 64
2020-03-19 18:00:00 15.1 8 Sudeste 17 Sudeste 0 939.6 -1.7 61
2020-03-19 17:00:00 16.2 11 Sur 18 Sur 0 940.1 -2 58
2020-03-19 16:00:00 16.6 11 Sur 19 Sur 0 940.7 -2.2 55
2020-03-19 15:00:00 16.4 5 Sur 11 Sur 0 941.3 -2.2 64
2020-03-19 14:00:00 15.1 4 Sudeste 10 Este 0 942.1 -2 74
2020-03-19 13:00:00 13.6 6 Este 11 Nordeste 0 942.9 -1.4 81
2020-03-19 12:00:00 12.1 5 Nordeste 12 Nordeste 0 943.5 -0.6 83
2020-03-19 11:00:00 10.6 6 Norte 12 Norte 0 944.1 0 89
2020-03-19 10:00:00 8.2 8 Norte 13 Norte 0 944.3 0.2 97
2020-03-19 09:00:00 6.4 3 Nordeste 7 Nordeste 0 944.1 0.1 97
2020-03-19 08:00:00 6.1 5 Nordeste 9 Norte 0 944.1 0.1 96
2020-03-19 07:00:00 6.7 5 Norte 9 Norte 0 944.1 0 96
2020-03-19 06:00:00 6.8 5 Nordeste 9 Nordeste 0 944 -0.7 97
2020-03-19 05:00:00 7.2 6 Nordeste 10 Norte 0 944 -1.1 97
2020-03-19 04:00:00 8 3 Noroeste 5 Noroeste 0 944.1 -1.2 96
2020-03-19 03:00:00 8 2 Este 10 Nordeste 0 944.7 -1.1 95
2020-03-19 02:00:00 8.7 5 Nordeste 8 Nordeste 0 945.1 -1.1 93
2020-03-19 01:00:00 9.9 2 Norte 4 Nordeste 0 945.3 -0.9 91
2020-03-19 00:00:00 10.8 0 Calma 4 Nordeste 0 945.8 -0.3 90
2020-03-18 23:00:00 11.7 3 Noroeste 5 Norte 0 946.2 0.2 89
2020-03-18 22:00:00 12.7 0 Calma 7 Nordeste 0 946.2 0.3 86
2020-03-18 21:00:00 13.5 3 Nordeste 6 Nordeste 0 946.1 0.2 84
2020-03-18 20:00:00 14.7 5 Nordeste 9 Nordeste 0 946 0 81
2020-03-18 19:00:00 16.1 5 Nordeste 13 Este 0 945.9 -0.5 75
2020-03-18 18:00:00 17 9 Nordeste 14 Nordeste 0 945.9 -1.1 70
2020-03-18 17:00:00 17.2 8 Nordeste 18 Nordeste 0 946 -1.7 68
2020-03-18 16:00:00 17.3 11 Nordeste 21 Norte 0 946.4 -2.3 64
2020-03-18 15:00:00 16.5 12 Nordeste 21 Nordeste 0 947 -2.5 68
2020-03-18 14:00:00 14.1 11 Nordeste 21 Nordeste 0 947.7 -2 75
2020-03-18 13:00:00 12.1 9 Nordeste 18 Nordeste 0 948.7 -1.1 84
2020-03-18 12:00:00 10.3 10 Nordeste 17 Nordeste 0 949.5 0 88
2020-03-18 11:00:00 9.3 9 Nordeste 14 Norte 0 949.7 0.1 93
2020-03-18 10:00:00 7.9 9 Nordeste 16 Norte 0 949.8 0.4 95
2020-03-18 09:00:00 6 8 Norte 12 Nordeste 0 949.5 -0.1 99
2020-03-18 08:00:00 5.1 7 Nordeste 14 Nordeste 0 949.6 0.3 97
2020-03-18 07:00:00 5.4 6 Norte 12 Norte 0 949.4 0 97
2020-03-18 06:00:00 6 5 Norte 12 Norte 0 949.6 -0.1 97
2020-03-18 05:00:00 6.2 5 Norte 13 Norte 0 949.3 -0.5 97
2020-03-18 04:00:00 6.3 6 Nordeste 13 Norte 0 949.4 -0.7 97
2020-03-18 03:00:00 6.8 7 Nordeste 18 Nordeste 0 949.7 -0.6 96
2020-03-18 02:00:00 6.7 9 Norte 14 Norte 0 949.8 -0.5 96
2020-03-18 01:00:00 7.3 4 Norte 17 Norte 0 950.1 0.1 94
2020-03-18 00:00:00 8.5 10 Nordeste 18 Norte 0 950.3 0.8 93
2020-03-17 23:00:00 8.8 9 Nordeste 18 Nordeste 0 950.3 1.7 92
2020-03-17 22:00:00 9.8 6 Nordeste 18 Nordeste 0 950 2.1 90
2020-03-17 21:00:00 10.7 6 Nordeste 25 Este 0 949.5 2 87
2020-03-17 20:00:00 11.7 8 Nordeste 26 Nordeste 0 948.6 1.5 83
2020-03-17 19:00:00 13.4 16 Nordeste 33 Nordeste 0 947.9 0.8 77
2020-03-17 18:00:00 14.9 14 Nordeste 27 Nordeste 0 947.5 0.3 72
2020-03-17 17:00:00 15.6 18 Nordeste 29 Nordeste 0 947.1 -0.6 70
2020-03-17 16:00:00 14.8 16 Nordeste 26 Nordeste 0 947.1 -0.7 69
2020-03-17 15:00:00 15.1 17 Nordeste 31 Este 0 947.2 -0.7 69
2020-03-17 14:00:00 12.9 15 Este 31 Este 0 947.7 0.1 75
2020-03-17 13:00:00 11.7 16 Este 32 Nordeste 0 947.8 0.7 80
2020-03-17 12:00:00 11.3 22 Nordeste 38 Nordeste 0 947.9 0.7 78
2020-03-17 11:00:00 10.4 20 Nordeste 40 Nordeste 0 947.6 1.3 81
2020-03-17 10:00:00 9.3 17 Nordeste 31 Nordeste 0 947.1 1.2 86
2020-03-17 09:00:00 7.8 20 Este 37 Nordeste 0 947.2 1.9 87
2020-03-17 08:00:00 6.7 22 Nordeste 43 Nordeste 0 946.3 1.5 88
2020-03-17 07:00:00 6.4 23 Nordeste 40 Nordeste 0 945.9 1.5 88
2020-03-17 06:00:00 5.9 20 Nordeste 36 Este 0 945.3 0.5 92
2020-03-17 05:00:00 5.9 19 Nordeste 41 Nordeste 0.2 944.8 0.6 91
2020-03-17 04:00:00 6.1 24 Nordeste 39 Nordeste 0.2 944.4 0.6 88
2020-03-17 03:00:00 6 19 Nordeste 41 Nordeste 0.2 944.8 1 88
2020-03-17 02:00:00 6.3 22 Nordeste 45 Nordeste 0 944.2 0.9 83
2020-03-17 01:00:00 6.3 16 Nordeste 34 Nordeste 0.2 943.8 1.3 81
2020-03-17 00:00:00 6.5 21 Nordeste 35 Nordeste 0 943.8 1.9 79
2020-03-16 23:00:00 6.2 14 Nordeste 34 Nordeste 0.2 943.3 2.1 79
2020-03-16 22:00:00 6.5 14 Nordeste 29 Nordeste 0 942.5 2 80
2020-03-16 21:00:00 6.6 16 Nordeste 28 Nordeste 0 941.9 1.7 80
2020-03-16 20:00:00 7.1 17 Nordeste 30 Nordeste 0 941.2 1.3 79
2020-03-16 19:00:00 7.6 15 Nordeste 32 Nordeste 0 940.5 1.1 75
2020-03-16 18:00:00 7.6 13 Nordeste 34 Nordeste 0 940.2 1.3 78
2020-03-16 17:00:00 8.4 17 Este 30 Nordeste 0 939.9 0.4 73
2020-03-16 16:00:00 8.7 15 Este 45 Norte 0 939.4 -0.1 68
2020-03-16 15:00:00 9.1 18 Norte 39 Norte 0 938.9 -0.9 62
2020-03-16 14:00:00 8.2 22 Norte 36 Nordeste 0 939.5 0.2 61
2020-03-16 13:00:00 7.7 23 Norte 40 Norte 0 939.5 0.7 65
2020-03-16 12:00:00 5.5 22 Norte 48 Norte 0.4 939.8 1.6 78
2020-03-16 11:00:00 5.8 18 Norte 40 Norte 0 939.3 1.8 73
2020-03-16 10:00:00 4.8 14 Norte 33 Norte 0 938.8 1.7 81
2020-03-16 09:00:00 3.9 21 Norte 35 Norte 0 938.2 1.6 87
2020-03-16 08:00:00 3.1 18 Norte 31 Norte 0.6 937.5 1.1 92
2020-03-16 07:00:00 2.8 19 Norte 39 Norte 1 937.1 1 94
2020-03-16 06:00:00 2.6 18 Norte 31 Norte 0.8 936.6 0 95
2020-03-16 05:00:00 2 17 Norte 27 Norte 1.2 936.4 -0.4 95
2020-03-16 04:00:00 2.3 6 Noroeste 17 Norte 0.8 936.1 -0.8 93
2020-03-16 03:00:00 3 6 Noroeste 20 Norte 0.6 936.6 -0.6 91
2020-03-16 02:00:00 4.1 11 Norte 21 Norte 0 936.8 -0.4 84
2020-03-16 01:00:00 4.6 4 Oeste 18 Oeste 0 936.9 0.1 82
2020-03-16 00:00:00 4.1 9 Noroeste 27 Noroeste 0 937.2 1.9 86
2020-03-15 23:00:00 4 8 Noroeste 40 Norte 0.4 937.2 3.5 90
2020-03-15 22:00:00 6 16 Norte 27 Norte 0 936.8 3.2 80
2020-03-15 21:00:00 7.3 9 Noroeste 33 Sudoeste 0 935.3 1.4 77
2020-03-15 20:00:00 11.7 10 Oeste 27 Oeste 0 933.7 -0.6 62
2020-03-15 19:00:00 13.1 9 Oeste 25 Sudoeste 0 933.6 -1 48
2020-03-15 18:00:00 14.3 8 Sudoeste 28 Oeste 0 933.9 -1.2 47
2020-03-15 17:00:00 16.1 8 Oeste 27 Oeste 0 934.3 -0.8 48
2020-03-15 16:00:00 16.8 13 Oeste 30 Sudoeste 0 934.6 -1.6 44
2020-03-15 15:00:00 18.2 9 Oeste 44 Noroeste 0 935.1 -2.2 43
2020-03-15 14:00:00 19.1 13 Sudoeste 28 Sudoeste 0 935.1 -3.2 38
2020-03-15 13:00:00 17.3 4 Sudoeste 11 Sudoeste 0 936.2 -2.7 44
2020-03-15 12:00:00 13 3 Norte 8 Norte 0 937.3 -1.6 54
2020-03-15 11:00:00 9 4 Este 7 Nordeste 0 938.3 -0.8 66
2020-03-15 10:00:00 5.5 3 Nordeste 7 Sudeste 0 938.9 -0.2 77
2020-03-15 09:00:00 3.1 5 Sudeste 9 Sudeste 0 938.9 -0.5 82
2020-03-15 08:00:00 1.2 0 Calma 4 Noroeste 0 939.1 -0.6 90
2020-03-15 07:00:00 1.2 3 Norte 9 Este 0 939.1 -1.1 86
2020-03-15 06:00:00 2.1 3 Nordeste 8 Este 0 939.4 -1.4 84
2020-03-15 05:00:00 3.1 3 Este 5 Nordeste 0 939.7 -1.7 80
2020-03-15 04:00:00 3.5 4 Este 8 Este 0 940.2 -1.6 79
2020-03-15 03:00:00 4.2 2 Nordeste 12 Este 0 940.8 -1.4 79
2020-03-15 02:00:00 5.1 5 Este 8 Este 0 941.4 -1 77
2020-03-15 01:00:00 6.3 2 Nordeste 4 Norte 0 941.8 -0.5 73
2020-03-15 00:00:00 7.6 0 Calma 4 Norte 0 942.2 -0.1 69
2020-03-14 23:00:00 8.6 3 Norte 4 Norte 0 942.4 0.1 65
2020-03-14 22:00:00 11.1 3 Sur 5 Sur 0 942.3 0.1 58
2020-03-14 21:00:00 12.1 0 Calma 4 Noroeste 0 942.3 0 50
2020-03-14 20:00:00 13.9 2 Noroeste 6 Norte 0 942.3 -0.4 46
2020-03-14 19:00:00 15.7 5 Norte 9 Norte 0 942.2 -0.8 42
2020-03-14 18:00:00 17.6 4 Norte 8 Noroeste 0 942.3 -1.3 33
2020-03-14 17:00:00 19.1 3 Este 11 Este 0 942.7 -1.9 31
2020-03-14 16:00:00 18.3 5 Este 14 Este 0 943 -2.4 39
2020-03-14 15:00:00 17.4 3 Este 12 Sur 0 943.6 -2.3 38
2020-03-14 14:00:00 15.7 4 Nordeste 15 Nordeste 0 944.6 -1.9 52
2020-03-14 13:00:00 13.5 4 Nordeste 11 Este 0 945.4 -1.1 55
2020-03-14 12:00:00 10.9 4 Nordeste 10 Nordeste 0 945.9 -0.1 63
2020-03-14 11:00:00 8.7 5 Este 12 Este 0 946.5 0.8 74
2020-03-14 10:00:00 5.3 6 Este 11 Nordeste 0 946.5 1.1 90
2020-03-14 09:00:00 2.1 2 Nordeste 5 Norte 0 946 0.7 94
2020-03-14 08:00:00 1.2 2 Noroeste 4 Norte 0 945.7 0.8 94
2020-03-14 07:00:00 1.5 2 Norte 4 Noroeste 0 945.4 0.4 93
2020-03-14 06:00:00 1.9 3 Nordeste 8 Nordeste 0 945.3 -0.1 94
2020-03-14 05:00:00 2.2 4 Nordeste 8 Nordeste 0 944.9 -0.5 92
2020-03-14 04:00:00 3 4 Nordeste 8 Norte 0 945 -0.6 91
2020-03-14 03:00:00 3.9 4 Norte 8 Noroeste 0 945.4 0.2 89
2020-03-14 02:00:00 4.7 4 Noroeste 8 Norte 0 945.4 0.5 88
2020-03-14 01:00:00 5.5 5 Norte 12 Norte 0 945.6 0.8 88
2020-03-14 00:00:00 6.5 3 Nordeste 8 Norte 0 945.2 1.3 84
2020-03-13 23:00:00 7.4 3 Nordeste 10 Norte 0 944.9 1.6 83
2020-03-13 22:00:00 8.4 6 Norte 15 Este 0 944.8 2 81
2020-03-13 21:00:00 9.9 6 Nordeste 14 Nordeste 0 943.9 1.4 76
2020-03-13 20:00:00 11.9 7 Nordeste 15 Este 0 943.3 0.8 70
2020-03-13 19:00:00 13.7 12 Este 21 Este 0 942.8 0.1 64
2020-03-13 18:00:00 15.2 12 Nordeste 31 Norte 0 942.5 -0.3 59
2020-03-13 17:00:00 16.8 13 Norte 23 Este 0 942.5 -0.8 57
2020-03-13 16:00:00 16 12 Nordeste 23 Norte 0 942.7 -1.3 58
2020-03-13 15:00:00 15.8 12 Nordeste 25 Nordeste 0 942.8 -1.6 60
2020-03-13 14:00:00 15.4 15 Norte 28 Norte 0 943.3 -1.1 61
2020-03-13 13:00:00 14.7 14 Nordeste 27 Norte 0 944 -0.7 63
2020-03-13 12:00:00 12.3 14 Nordeste 28 Nordeste 0 944.4 -0.1 71
2020-03-13 11:00:00 11 15 Nordeste 28 Nordeste 0 944.4 0.1 73
2020-03-13 10:00:00 9.4 15 Nordeste 26 Nordeste 0 944.7 0.7 81
2020-03-13 09:00:00 7.1 10 Nordeste 18 Nordeste 0 944.5 0.7 90
2020-03-13 08:00:00 6.4 7 Norte 12 Nordeste 0 944.3 0.7 90
2020-03-13 07:00:00 6.7 7 Nordeste 15 Norte 0 944 0.4 91
2020-03-13 06:00:00 6.5 8 Norte 15 Norte 0 943.8 0 91
2020-03-13 05:00:00 6.6 11 Norte 22 Nordeste 0 943.6 -0.2 90
2020-03-13 04:00:00 6.9 10 Norte 22 Nordeste 0 943.6 -0.5 90
2020-03-13 03:00:00 7.6 12 Norte 18 Nordeste 0 943.8 -0.6 88
2020-03-13 02:00:00 8.1 9 Nordeste 17 Nordeste 0 943.8 -0.3 89
2020-03-13 01:00:00 8.7 10 Nordeste 21 Norte 0 944.1 1 88
2020-03-13 00:00:00 9.7 10 Nordeste 25 Nordeste 0 944.4 2 86
2020-03-12 23:00:00 10.6 12 Nordeste 26 Norte 0 944.1 2.7 85
2020-03-12 22:00:00 12 10 Nordeste 20 Nordeste 0 943.1 1.9 80
2020-03-12 21:00:00 13.8 9 Nordeste 21 Norte 0 942.4 1.6 75
2020-03-12 20:00:00 17.6 3 Norte 6 Norte 0 941.4 0.5 63
2020-03-12 19:00:00 19 3 Norte 7 Nordeste 0 941.2 -0.1 60
2020-03-12 18:00:00 19.9 6 Este 9 Este 0 940.8 -1.1 58
2020-03-12 17:00:00 20.4 3 Nordeste 10 Este 0 940.9 -2.1 55
2020-03-12 16:00:00 21.3 3 Este 9 Norte 0 941.3 -2.3 52
2020-03-12 15:00:00 20.1 4 Norte 10 Norte 0 941.9 -2.1 54
2020-03-12 14:00:00 18.4 5 Norte 12 Norte 0 943 -1.2 63
2020-03-12 13:00:00 18 4 Nordeste 10 Norte 0 943.6 -0.6 63
2020-03-12 12:00:00 15.4 6 Norte 12 Norte 0 944 0 70
2020-03-12 11:00:00 13.5 8 Norte 12 Norte 0 944.2 0.7 76
2020-03-12 10:00:00 11.9 5 Norte 8 Nordeste 0 944.2 0.8 82
2020-03-12 09:00:00 9.4 3 Norte 4 Norte 0 944 0.5 88
2020-03-12 08:00:00 8.6 0 Calma 7 Nordeste 0 943.5 -0.1 87
2020-03-12 07:00:00 8.9 5 Nordeste 8 Nordeste 0 943.4 -0.6 85
2020-03-12 06:00:00 9.5 2 Norte 4 Nordeste 0 943.5 -1 85
2020-03-12 05:00:00 10 0 Calma 4 Norte 0 943.6 -1.4 83
2020-03-12 04:00:00 10.4 2 Nordeste 4 Nordeste 0 944 -1.2 82
2020-03-12 03:00:00 11.1 2 Nordeste 5 Este 0 944.5 -1 78
2020-03-12 02:00:00 11.7 2 Nordeste 4 Sudeste 0 945 -0.7 77
2020-03-12 01:00:00 12.1 3 Noroeste 4 Norte 0 945.2 -0.2 75
2020-03-12 00:00:00 13.4 3 Norte 4 Norte 0 945.5 0.1 72
2020-03-11 23:00:00 15.4 0 Calma 5 Noroeste 0 945.7 0.3 65
2020-03-11 22:00:00 17.1 3 Norte 8 Sudoeste 0 945.4 0.1 60
2020-03-11 21:00:00 18.7 3 Sudoeste 6 Sudoeste 0 945.4 0.2 50
2020-03-11 20:00:00 19.6 2 Oeste 6 Oeste 0 945.4 0.1 44
2020-03-11 19:00:00 21.4 0 Calma 13 Sudoeste 0 945.3 -0.2 44
2020-03-11 18:00:00 23.3 6 Sudoeste 18 Oeste 0 945.2 -0.8 32
2020-03-11 17:00:00 24.8 8 Oeste 17 Sudoeste 0 945.3 -1.6 27
2020-03-11 16:00:00 24.9 7 Oeste 17 Sudoeste 0 945.5 -2.1 30
2020-03-11 15:00:00 24.1 5 Sudoeste 12 Oeste 0 946 -2.3 40
2020-03-11 14:00:00 22.1 4 Noroeste 10 Noroeste 0 946.9 -1.8 39
2020-03-11 13:00:00 19.1 3 Norte 11 Este 0 947.6 -1.1 39
2020-03-11 12:00:00 16.2 4 Este 8 Este 0 948.3 -0.1 50
2020-03-11 11:00:00 12.4 3 Nordeste 6 Nordeste 0 948.7 0.5 66
2020-03-11 10:00:00 8.5 4 Nordeste 6 Nordeste 0 948.7 0.5 78
2020-03-11 09:00:00 5.5 0 Calma 5 Este 0 948.4 0.3 86
2020-03-11 08:00:00 4.7 3 Norte 3 Noroeste 0 948.2 0.4 85
2020-03-11 07:00:00 5.2 0 Calma 5 Este 0 948.2 0.2 85
2020-03-11 06:00:00 5.7 4 Este 6 Este 0 948.1 -0.5 83
2020-03-11 05:00:00 6.8 0 Calma 3 Noroeste 0 947.8 -1 75
2020-03-11 04:00:00 7.6 0 Calma 3 Noroeste 0 948 -0.9 74
2020-03-11 03:00:00 8.5 0 Calma 3 Norte 0 948.6 -0.6 69
2020-03-11 02:00:00 9.8 0 Calma 9 Sudoeste 0 948.8 -0.4 64
2020-03-11 01:00:00 11 2 Sudoeste 8 Sudoeste 0 948.9 -0.2 59
2020-03-11 00:00:00 12.4 4 Sudoeste 9 Sur 0 949.2 0.5 53
2020-03-10 23:00:00 13.7 4 Sudoeste 14 Oeste 0 949.2 0.7 48
2020-03-10 22:00:00 15.1 6 Sudoeste 15 Oeste 0 949.1 0.7 43
2020-03-10 21:00:00 16.2 5 Sudoeste 16 Oeste 0 948.7 0.7 39
2020-03-10 20:00:00 17.5 7 Oeste 16 Oeste 0 948.5 0.5 34
2020-03-10 19:00:00 18.8 5 Oeste 21 Oeste 0 948.4 0 28
2020-03-10 18:00:00 20.6 9 Oeste 21 Oeste 0 948 -0.8 30
2020-03-10 17:00:00 22 9 Sudoeste 26 Sudoeste 0 948 -1.3 36
2020-03-10 16:00:00 21.9 8 Oeste 23 Sudoeste 0 948.4 -1.7 34
2020-03-10 15:00:00 21 9 Sudoeste 24 Sudoeste 0 948.8 -2 38
2020-03-10 14:00:00 19.6 6 Oeste 18 Sudoeste 0 949.3 -1.7 43
2020-03-10 13:00:00 17.5 7 Oeste 15 Oeste 0 950.1 -1.1 48
2020-03-10 12:00:00 15 3 Oeste 10 Sudeste 0 950.8 0.2 60
2020-03-10 11:00:00 11.7 3 Sur 11 Sudoeste 0 951 0.8 73
2020-03-10 10:00:00 8.2 3 Este 5 Sur 0 951.2 1.1 82
2020-03-10 09:00:00 5.6 2 Nordeste 4 Norte 0 950.6 0.4 88
2020-03-10 08:00:00 5.3 3 Norte 5 Norte 0 950.2 0.3 87
2020-03-10 07:00:00 6.2 0 Calma 5 Norte 0 950.1 0.1 82
2020-03-10 06:00:00 6.7 3 Nordeste 8 Sudoeste 0 950.2 -0.1 81
2020-03-10 05:00:00 7.8 3 Oeste 10 Sudoeste 0 949.9 -0.2 76
2020-03-10 04:00:00 8.2 4 Oeste 13 Sudoeste 0 950 -0.7 73
2020-03-10 03:00:00 8.6 5 Oeste 13 Oeste 0 950.3 -0.5 71
2020-03-10 02:00:00 8.8 6 Sudoeste 13 Oeste 0 950.1 -0.8 69
2020-03-10 01:00:00 8.5 4 Oeste 11 Oeste 0 950.7 0.2 72
2020-03-10 00:00:00 8.8 2 Oeste 5 Oeste 0 950.8 0.7 74
2020-03-09 23:00:00 9.9 2 Norte 10 Sudoeste 0 950.9 1.1 69
2020-03-09 22:00:00 11.3 5 Sudoeste 13 Sudoeste 0 950.5 0.8 63
2020-03-09 21:00:00 12.4 6 Oeste 12 Oeste 0 950.1 1.1 58
2020-03-09 20:00:00 13.4 6 Sudoeste 14 Sudoeste 0 949.8 0.4 53
2020-03-09 19:00:00 14.8 5 Sudoeste 14 Sudoeste 0 949.7 0 45
2020-03-09 18:00:00 15.5 8 Sudoeste 15 Noroeste 0 949 -1.4 43
2020-03-09 17:00:00 16.5 5 Sudoeste 12 Oeste 0 949.4 -1.9 41
2020-03-09 16:00:00 16.5 5 Sudoeste 17 Sudoeste 0 949.7 -2.1 40
2020-03-09 15:00:00 15.2 6 Sur 13 Sudoeste 0 950.4 -1.5 45
2020-03-09 14:00:00 14.6 4 Sudoeste 13 Sudoeste 0 951.3 -0.8 50
2020-03-09 13:00:00 12.7 5 Sur 14 Este 0 951.8 0 57
2020-03-09 12:00:00 11.4 6 Este 12 Este 0 951.9 0.5 62
2020-03-09 11:00:00 8.9 4 Noroeste 8 Sudoeste 0 952.1 1.3 75
2020-03-09 10:00:00 6.1 4 Oeste 8 Oeste 0 951.8 1.7 88
2020-03-09 09:00:00 4.3 0 Calma 5 Sudeste 0 951.4 1.7 92
2020-03-09 08:00:00 4.1 2 Sudoeste 8 Oeste 0 950.8 0.9 92
2020-03-09 07:00:00 4.6 3 Noroeste 17 Oeste 0 950.1 0.1 90
2020-03-09 06:00:00 5.1 5 Sudoeste 16 Oeste 0 949.7 -0.4 89
2020-03-09 05:00:00 5.4 7 Sudoeste 16 Sudoeste 0 949.9 -0.4 88
2020-03-09 04:00:00 5.9 8 Oeste 18 Oeste 0 950 -0.4 87
2020-03-09 03:00:00 6.5 8 Oeste 16 Oeste 0 950.1 0 88
2020-03-09 02:00:00 6.9 6 Oeste 18 Oeste 0 950.3 0.5 89
2020-03-09 01:00:00 7.6 5 Oeste 21 Sudoeste 0 950.4 1.4 88
2020-03-09 00:00:00 8.3 6 Oeste 19 Noroeste 0 950.1 1.2 86